Time;durP1;ratioP1;P1;durP2;ratioP2;P2;SDS_P1;SDS_P2;PMS_P1;PMS_P2;Temp;Humidity;BMP_temperature;BMP_pressure;BME280_temperature;BME280_humidity;BME280_pressure;Samples;Min_cycle;Max_cycle;Signal;HPM_P1;HPM_P2
2021/05/11 00:00:52;;;;;;;4.03;1.80;;;;;;;;;;5032433;28;20104;-68
2021/05/11 00:03:17;;;;;;;1.35;0.88;;;;;;;;;;5032720;28;20392;-70
2021/05/11 00:05:42;;;;;;;2.30;1.03;;;;;;;;;;5034301;28;20486;-68
2021/05/11 00:08:07;;;;;;;3.97;1.40;;;;;;;;;;5037153;28;20267;-70
2021/05/11 00:10:32;;;;;;;6.88;1.30;;;;;;;;;;5044242;28;20830;-68
2021/05/11 00:12:57;;;;;;;1.73;1.27;;;;;;;;;;5035924;28;20025;-69
2021/05/11 00:15:23;;;;;;;1.98;1.55;;;;;;;;;;5045707;28;20961;-68
2021/05/11 00:17:48;;;;;;;2.88;1.80;;;;;;;;;;5031422;28;20052;-69
2021/05/11 00:20:14;;;;;;;8.15;2.20;;;;;;;;;;5014459;28;20132;-68
2021/05/11 00:22:40;;;;;;;5.75;2.03;;;;;;;;;;5044031;23;20057;-69
2021/05/11 00:25:05;;;;;;;2.47;1.40;;;;;;;;;;5052134;28;20033;-68
2021/05/11 00:27:31;;;;;;;4.07;2.30;;;;;;;;;;5050673;28;20066;-69
2021/05/11 00:29:56;;;;;;;4.73;1.63;;;;;;;;;;5051912;28;20079;-69
2021/05/11 00:32:21;;;;;;;2.90;1.97;;;;;;;;;;5051842;28;20256;-68
2021/05/11 00:34:46;;;;;;;3.92;2.30;;;;;;;;;;5055414;28;20275;-68
2021/05/11 00:37:11;;;;;;;5.37;3.00;;;;;;;;;;5057016;28;20053;-69
2021/05/11 00:39:36;;;;;;;4.53;2.60;;;;;;;;;;5050957;28;20267;-69
2021/05/11 00:42:02;;;;;;;4.20;2.50;;;;;;;;;;5052292;28;20306;-69
2021/05/11 00:44:27;;;;;;;6.88;3.72;;;;;;;;;;5064547;28;20270;-69
2021/05/11 00:47:02;;;;;;;6.70;2.83;;;;;;;;;;5058197;28;20033;-69
2021/05/11 00:49:29;;;;;;;4.03;3.10;;;;;;;;;;5052915;28;20421;-69
2021/05/11 00:51:54;;;;;;;4.53;2.30;;;;;;;;;;5050653;28;20017;-69
2021/05/11 00:54:20;;;;;;;4.85;3.30;;;;;;;;;;5050894;28;20021;-69
2021/05/11 00:56:46;;;;;;;10.32;3.72;;;;;;;;;;5051686;28;20012;-68
2021/05/11 00:59:18;;;;;;;6.55;4.05;;;;;;;;;;5056546;28;20392;-68
2021/05/11 01:01:43;;;;;;;4.43;3.15;;;;;;;;;;5050955;28;20013;-68
2021/05/11 01:04:09;;;;;;;4.83;3.57;;;;;;;;;;5050359;28;20013;-68
2021/05/11 01:06:34;;;;;;;5.45;4.05;;;;;;;;;;5050726;28;20698;-69
2021/05/11 01:08:59;;;;;;;5.97;4.03;;;;;;;;;;5050512;28;20076;-69
2021/05/11 01:11:24;;;;;;;10.07;4.10;;;;;;;;;;5050872;28;20620;-69
2021/05/11 01:13:50;;;;;;;8.27;3.83;;;;;;;;;;5050209;28;20024;-69
2021/05/11 01:16:15;;;;;;;12.85;3.42;;;;;;;;;;5053558;28;20492;-69
2021/05/11 01:18:41;;;;;;;5.93;3.75;;;;;;;;;;5053673;28;20017;-69
2021/05/11 01:21:28;;;;;;;6.32;3.95;;;;;;;;;;5050302;28;20063;-69
2021/05/11 01:24:03;;;;;;;4.68;3.50;;;;;;;;;;5050929;28;20016;-69
2021/05/11 01:26:54;;;;;;;8.15;4.28;;;;;;;;;;5049847;28;20021;-69
2021/05/11 01:29:28;;;;;;;11.15;3.65;;;;;;;;;;5047264;28;20568;-69
2021/05/11 01:48:11;;;;;;;5.65;4.18;;;;;;;;;;5049870;28;20040;-70
2021/05/11 01:55:47;;;;;;;6.30;4.47;;;;;;;;;;5048608;28;20024;-69
2021/05/11 02:22:56;;;;;;;7.20;4.53;;;;;;;;;;5049950;28;20051;-70
2021/05/11 02:25:22;;;;;;;7.60;5.28;;;;;;;;;;5055996;28;20029;-70
2021/05/11 02:27:47;;;;;;;8.90;4.75;;;;;;;;;;5049759;28;20267;-70
2021/05/11 02:30:12;;;;;;;11.70;4.73;;;;;;;;;;5049865;28;20040;-70
2021/05/11 02:32:38;;;;;;;9.07;4.75;;;;;;;;;;5049001;28;20306;-70
2021/05/11 02:35:03;;;;;;;9.40;5.10;;;;;;;;;;5049347;28;20040;-70
2021/05/11 02:37:29;;;;;;;7.85;4.40;;;;;;;;;;5048751;28;20699;-70
2021/05/11 02:39:54;;;;;;;7.83;4.83;;;;;;;;;;5049729;28;20374;-70
2021/05/11 02:42:19;;;;;;;7.37;4.53;;;;;;;;;;5050951;28;20256;-70
2021/05/11 02:44:46;;;;;;;9.20;5.63;;;;;;;;;;5053918;28;20260;-70
2021/05/11 02:47:12;;;;;;;7.22;5.57;;;;;;;;;;5045692;28;20630;-70
2021/05/11 02:49:40;;;;;;;21.13;5.30;;;;;;;;;;5048992;28;20033;-70
2021/05/11 02:52:05;;;;;;;8.70;5.25;;;;;;;;;;5040942;28;20021;-70
2021/05/11 02:54:31;;;;;;;9.20;5.30;;;;;;;;;;5049411;28;20058;-70
2021/05/11 02:56:56;;;;;;;8.05;5.13;;;;;;;;;;5046047;28;20078;-69
2021/05/11 02:59:21;;;;;;;7.67;5.30;;;;;;;;;;5053704;28;20013;-69
2021/05/11 03:01:47;;;;;;;10.63;6.22;;;;;;;;;;5049123;28;20758;-69
2021/05/11 03:04:12;;;;;;;8.13;5.78;;;;;;;;;;5050178;28;20036;-69
2021/05/11 03:06:37;;;;;;;7.80;5.60;;;;;;;;;;5052539;28;20343;-69
2021/05/11 03:09:02;;;;;;;8.93;5.87;;;;;;;;;;5053461;28;20271;-69
2021/05/11 03:11:27;;;;;;;8.65;5.65;;;;;;;;;;5052376;28;20401;-69
2021/05/11 03:13:52;;;;;;;7.73;5.80;;;;;;;;;;5057479;28;20029;-69
2021/05/11 03:16:18;;;;;;;8.60;6.40;;;;;;;;;;5052796;28;20719;-69
2021/05/11 03:18:43;;;;;;;9.43;5.97;;;;;;;;;;5053146;28;20262;-69
2021/05/11 03:21:08;;;;;;;8.88;6.28;;;;;;;;;;5052744;28;20712;-69
2021/05/11 03:23:34;;;;;;;6.88;5.68;;;;;;;;;;5034714;28;20059;-69
2021/05/11 03:25:59;;;;;;;8.40;6.10;;;;;;;;;;5051135;28;20286;-69
2021/05/11 03:28:24;;;;;;;11.20;5.43;;;;;;;;;;5055302;28;20032;-69
2021/05/11 03:30:49;;;;;;;9.73;6.07;;;;;;;;;;5063496;28;20320;-69
2021/05/11 03:33:14;;;;;;;9.07;5.73;;;;;;;;;;5052349;28;20264;-69
2021/05/11 03:35:39;;;;;;;10.83;6.33;;;;;;;;;;5052181;28;20778;-69
2021/05/11 03:38:06;;;;;;;10.53;5.97;;;;;;;;;;5051857;28;20346;-69
2021/05/11 03:40:31;;;;;;;9.10;6.43;;;;;;;;;;5052270;28;20339;-69
2021/05/11 03:43:04;;;;;;;9.73;6.15;;;;;;;;;;5051644;28;20556;-69
2021/05/11 03:45:35;;;;;;;11.30;6.82;;;;;;;;;;5052707;28;20103;-69
2021/05/11 03:48:00;;;;;;;12.02;6.55;;;;;;;;;;5060194;28;20017;-69
2021/05/11 03:50:25;;;;;;;10.10;6.53;;;;;;;;;;5054586;28;20097;-69
2021/05/11 03:52:50;;;;;;;10.95;7.78;;;;;;;;;;5051596;28;20762;-69
2021/05/11 03:55:16;;;;;;;13.93;8.65;;;;;;;;;;5052186;28;20423;-69
2021/05/11 03:57:41;;;;;;;11.73;8.88;;;;;;;;;;5052601;28;20450;-69
2021/05/11 04:00:07;;;;;;;12.77;8.93;;;;;;;;;;5055880;28;20461;-69
2021/05/11 04:02:32;;;;;;;10.45;7.65;;;;;;;;;;5051402;28;20271;-69
2021/05/11 04:04:57;;;;;;;12.88;8.95;;;;;;;;;;5051157;28;20021;-69
2021/05/11 04:07:22;;;;;;;12.43;8.85;;;;;;;;;;5051559;28;20021;-69
2021/05/11 04:09:57;;;;;;;13.88;8.57;;;;;;;;;;5051202;28;20032;-69
2021/05/11 04:12:41;;;;;;;11.25;8.57;;;;;;;;;;5048352;28;20043;-69
2021/05/11 04:17:50;;;;;;;12.75;7.85;;;;;;;;;;5051191;28;20051;-69
2021/05/11 04:20:15;;;;;;;10.10;8.07;;;;;;;;;;5051284;28;20654;-69
2021/05/11 04:22:40;;;;;;;11.35;7.63;;;;;;;;;;5053974;28;20306;-69
2021/05/11 04:25:06;;;;;;;16.73;7.80;;;;;;;;;;5059951;28;20042;-69
2021/05/11 04:27:31;;;;;;;10.45;7.30;;;;;;;;;;5054947;28;20025;-69
2021/05/11 04:30:00;;;;;;;12.38;8.50;;;;;;;;;;5050718;28;20020;-69
2021/05/11 04:32:25;;;;;;;10.90;7.38;;;;;;;;;;5057765;28;20047;-69
2021/05/11 04:34:50;;;;;;;11.50;7.90;;;;;;;;;;5052585;28;20029;-69
2021/05/11 04:37:15;;;;;;;15.30;8.50;;;;;;;;;;5050474;28;20017;-69
2021/05/11 04:39:40;;;;;;;10.07;7.30;;;;;;;;;;5052087;28;20636;-69
2021/05/11 04:42:06;;;;;;;12.87;8.63;;;;;;;;;;5054347;28;20389;-69
2021/05/11 04:44:32;;;;;;;11.98;8.30;;;;;;;;;;5050822;28;20264;-69
2021/05/11 04:47:04;;;;;;;16.52;8.93;;;;;;;;;;5051042;28;20025;-69
2021/05/11 04:49:29;;;;;;;15.57;9.75;;;;;;;;;;5051355;28;20021;-69
2021/05/11 04:51:54;;;;;;;16.05;10.40;;;;;;;;;;5050451;28;20040;-69
2021/05/11 04:54:20;;;;;;;20.92;11.70;;;;;;;;;;5050643;28;20020;-69
2021/05/11 04:56:46;;;;;;;14.63;7.00;;;;;;;;;;5050609;28;20033;-69
2021/05/11 04:59:11;;;;;;;14.32;6.53;;;;;;;;;;5050944;28;20700;-69
2021/05/11 05:01:36;;;;;;;14.68;6.38;;;;;;;;;;5050297;28;20056;-69
2021/05/11 05:04:02;;;;;;;15.47;8.43;;;;;;;;;;5050721;28;20465;-69
2021/05/11 05:06:28;;;;;;;13.75;6.95;;;;;;;;;;5050690;28;20285;-69
2021/05/11 05:08:53;;;;;;;11.13;6.50;;;;;;;;;;5050158;28;20485;-69
2021/05/11 05:11:18;;;;;;;14.68;7.13;;;;;;;;;;5053343;28;20267;-69
2021/05/11 05:13:44;;;;;;;12.93;5.75;;;;;;;;;;5050769;28;20490;-69
2021/05/11 05:16:09;;;;;;;12.10;5.97;;;;;;;;;;5048650;28;20031;-69
2021/05/11 05:18:34;;;;;;;12.63;6.00;;;;;;;;;;5028670;28;20048;-69
2021/05/11 05:21:04;;;;;;;11.87;5.20;;;;;;;;;;5049093;28;20068;-69
2021/05/11 05:23:33;;;;;;;16.05;5.85;;;;;;;;;;5048045;28;20272;-69
2021/05/11 05:26:05;;;;;;;9.90;5.88;;;;;;;;;;5047844;28;20057;-69
2021/05/11 05:28:32;;;;;;;17.23;6.18;;;;;;;;;;5047298;28;20037;-69
2021/05/11 05:31:01;;;;;;;12.90;5.97;;;;;;;;;;5030961;28;20028;-69
2021/05/11 05:33:33;;;;;;;13.23;5.97;;;;;;;;;;5050272;28;20060;-69
2021/05/11 05:35:58;;;;;;;16.38;5.47;;;;;;;;;;5047644;28;20020;-69
2021/05/11 05:38:23;;;;;;;10.98;4.95;;;;;;;;;;5048472;28;20029;-69
2021/05/11 05:40:55;;;;;;;16.77;6.05;;;;;;;;;;5046665;28;20079;-69
2021/05/11 05:43:20;;;;;;;20.75;5.93;;;;;;;;;;5047258;28;20028;-69
2021/05/11 05:45:46;;;;;;;11.50;5.70;;;;;;;;;;5046325;28;20021;-69
2021/05/11 05:48:11;;;;;;;9.43;5.25;;;;;;;;;;5047166;28;20686;-69
2021/05/11 05:50:36;;;;;;;11.47;5.07;;;;;;;;;;5047181;28;20032;-69
2021/05/11 05:53:03;;;;;;;12.38;5.90;;;;;;;;;;5047205;28;20837;-69
2021/05/11 05:55:29;;;;;;;14.00;6.10;;;;;;;;;;5034814;28;20086;-69
2021/05/11 05:57:55;;;;;;;14.95;6.63;;;;;;;;;;5045137;28;20724;-69
2021/05/11 06:00:20;;;;;;;12.82;5.80;;;;;;;;;;5048261;28;20012;-69
2021/05/11 06:02:47;;;;;;;12.45;5.82;;;;;;;;;;5049745;28;20520;-69
2021/05/11 06:05:13;;;;;;;14.77;6.28;;;;;;;;;;5031731;28;20027;-67
2021/05/11 06:07:39;;;;;;;13.50;5.47;;;;;;;;;;5050066;28;20025;-69
2021/05/11 06:10:05;;;;;;;16.05;4.95;;;;;;;;;;5048177;28;20484;-69
2021/05/11 06:12:38;;;;;;;14.60;4.82;;;;;;;;;;5049770;28;20020;-69
2021/05/11 06:17:35;;;;;;;11.77;4.18;;;;;;;;;;5050162;28;20051;-69
2021/05/11 06:20:00;;;;;;;12.48;3.78;;;;;;;;;;5048749;28;20497;-69
2021/05/11 06:22:26;;;;;;;7.82;3.65;;;;;;;;;;5049315;28;20044;-69
2021/05/11 06:24:51;;;;;;;11.23;3.88;;;;;;;;;;5049344;28;20024;-69
2021/05/11 06:27:16;;;;;;;11.40;4.22;;;;;;;;;;5048863;28;20670;-69
2021/05/11 06:29:44;;;;;;;12.40;4.63;;;;;;;;;;5049595;28;20024;-68
2021/05/11 06:32:09;;;;;;;17.27;4.78;;;;;;;;;;5048442;28;20017;-68
2021/05/11 06:34:36;;;;;;;10.60;4.72;;;;;;;;;;5049314;28;20496;-68
2021/05/11 06:37:01;;;;;;;11.55;4.88;;;;;;;;;;5048689;28;20021;-69
2021/05/11 06:39:27;;;;;;;8.80;3.78;;;;;;;;;;5053019;28;20066;-68
2021/05/11 06:41:55;;;;;;;9.40;4.28;;;;;;;;;;5053188;28;20017;-68
2021/05/11 06:49:42;;;;;;;9.80;4.50;;;;;;;;;;5053828;28;20051;-69
2021/05/11 06:54:51;;;;;;;12.20;4.85;;;;;;;;;;5053054;28;20117;-69
2021/05/11 06:57:17;;;;;;;9.17;4.47;;;;;;;;;;5060079;28;20097;-67
2021/05/11 06:59:42;;;;;;;9.07;4.00;;;;;;;;;;5053053;28;20627;-68
2021/05/11 07:02:07;;;;;;;10.33;4.17;;;;;;;;;;5058401;28;20021;-69
2021/05/11 07:04:33;;;;;;;13.27;4.63;;;;;;;;;;5065633;28;20260;-68
2021/05/11 07:06:59;;;;;;;12.93;4.13;;;;;;;;;;5052481;28;20263;-68
2021/05/11 07:09:35;;;;;;;11.65;4.63;;;;;;;;;;5048570;28;20108;-69
2021/05/11 07:14:26;;;;;;;9.95;4.45;;;;;;;;;;5051784;28;20094;-68
2021/05/11 07:16:51;;;;;;;10.27;4.77;;;;;;;;;;5061374;28;20025;-68
2021/05/11 07:19:16;;;;;;;11.63;4.63;;;;;;;;;;5052168;28;20332;-68
2021/05/11 07:21:41;;;;;;;10.97;4.03;;;;;;;;;;5052498;28;20298;-68
2021/05/11 07:24:07;;;;;;;10.10;4.38;;;;;;;;;;5052063;28;20750;-68
2021/05/11 07:26:32;;;;;;;7.60;4.10;;;;;;;;;;5051983;28;20466;-68
2021/05/11 07:31:23;;;;;;;11.70;5.47;;;;;;;;;;5052302;28;21692;-69
2021/05/11 07:33:51;;;;;;;12.23;6.13;;;;;;;;;;5053109;28;20078;-69
2021/05/11 07:36:16;;;;;;;9.98;6.93;;;;;;;;;;5052513;28;20286;-69
2021/05/11 07:38:42;;;;;;;14.88;7.53;;;;;;;;;;5052351;28;20092;-69
2021/05/11 07:41:07;;;;;;;17.25;7.82;;;;;;;;;;5053181;28;20092;-69
2021/05/11 07:43:34;;;;;;;16.95;8.90;;;;;;;;;;5052719;28;20048;-69
2021/05/11 08:02:01;;;;;;;16.40;8.63;;;;;;;;;;5033958;28;20143;-68
2021/05/11 08:04:32;;;;;;;23.02;11.02;;;;;;;;;;5051805;28;20020;-69
2021/05/11 08:10:47;;;;;;;16.80;10.60;;;;;;;;;;5049829;28;20029;-69
2021/05/11 08:28:18;;;;;;;16.08;10.25;;;;;;;;;;5052193;28;20036;-69
2021/05/11 08:30:43;;;;;;;18.87;9.70;;;;;;;;;;5052211;28;20020;-68
2021/05/11 08:33:08;;;;;;;19.03;9.77;;;;;;;;;;5051910;28;20346;-69
2021/05/11 08:35:33;;;;;;;18.53;10.50;;;;;;;;;;5052078;28;20390;-68
2021/05/11 08:37:58;;;;;;;15.07;9.25;;;;;;;;;;5051357;28;20268;-69
2021/05/11 08:40:25;;;;;;;20.98;8.93;;;;;;;;;;5051407;28;20024;-69
2021/05/11 08:42:50;;;;;;;17.35;9.80;;;;;;;;;;5051603;28;20024;-68
2021/05/11 08:45:16;;;;;;;13.20;9.77;;;;;;;;;;5050986;28;20017;-68
2021/05/11 08:47:51;;;;;;;13.65;9.20;;;;;;;;;;5052039;28;20027;-68
2021/05/11 08:50:17;;;;;;;19.10;9.60;;;;;;;;;;5038577;28;20413;-68
2021/05/11 09:06:32;;;;;;;18.75;10.48;;;;;;;;;;5051148;28;20032;-68
2021/05/11 09:09:09;;;;;;;15.52;11.05;;;;;;;;;;5051337;28;20021;-68
2021/05/11 09:15:31;;;;;;;16.58;10.23;;;;;;;;;;5050231;28;20028;-68
2021/05/11 09:25:26;;;;;;;15.85;9.57;;;;;;;;;;5043732;28;20045;-68
2021/05/11 09:28:01;;;;;;;18.48;9.07;;;;;;;;;;5050123;28;20568;-69
2021/05/11 09:30:53;;;;;;;15.88;8.48;;;;;;;;;;5050498;28;20023;-68
2021/05/11 09:33:32;;;;;;;12.27;8.25;;;;;;;;;;5048911;28;20374;-69
2021/05/11 09:58:46;;;;;;;12.18;7.35;;;;;;;;;;5043041;28;20119;-69
2021/05/11 10:48:19;;;;;;;9.65;5.72;;;;;;;;;;5049067;28;20033;-69
2021/05/11 10:50:46;;;;;;;8.90;6.13;;;;;;;;;;5048904;28;20040;-69
2021/05/11 10:53:34;;;;;;;9.65;5.55;;;;;;;;;;5040199;28;20037;-69
2021/05/11 10:59:12;;;;;;;8.85;4.88;;;;;;;;;;5042082;28;20049;-69
2021/05/11 11:01:39;;;;;;;9.82;5.93;;;;;;;;;;5042677;28;20021;-69
2021/05/11 11:04:08;;;;;;;7.40;5.85;;;;;;;;;;5049627;28;20016;-69
2021/05/11 11:06:51;;;;;;;8.32;6.38;;;;;;;;;;5047315;28;20104;-69
2021/05/11 11:09:17;;;;;;;11.25;6.75;;;;;;;;;;5049776;28;20036;-69
2021/05/11 11:11:43;;;;;;;8.93;5.70;;;;;;;;;;5046221;28;20032;-69
2021/05/11 11:14:08;;;;;;;12.48;6.15;;;;;;;;;;5048884;28;20017;-69
2021/05/11 11:16:33;;;;;;;7.78;5.53;;;;;;;;;;5048597;28;20362;-69
2021/05/11 11:19:07;;;;;;;8.77;5.40;;;;;;;;;;5047787;28;20092;-69
2021/05/11 11:24:38;;;;;;;10.77;6.50;;;;;;;;;;5049593;28;20053;-69
2021/05/11 11:27:04;;;;;;;9.35;6.00;;;;;;;;;;5052568;28;20032;-69
2021/05/11 11:29:29;;;;;;;9.00;6.10;;;;;;;;;;5052900;28;20032;-69
2021/05/11 11:31:55;;;;;;;9.05;6.75;;;;;;;;;;5052760;28;20087;-69
2021/05/11 11:34:35;;;;;;;9.52;6.57;;;;;;;;;;5034809;28;20079;-69
2021/05/11 11:37:04;;;;;;;10.30;6.57;;;;;;;;;;5052159;28;20071;-69
2021/05/11 11:39:56;;;;;;;11.97;6.60;;;;;;;;;;5039565;28;20500;-69
2021/05/11 11:42:22;;;;;;;8.75;6.68;;;;;;;;;;5046607;28;20683;-69
2021/05/11 11:44:52;;;;;;;8.85;6.05;;;;;;;;;;5052685;28;20033;-69
2021/05/11 11:47:17;;;;;;;11.00;7.07;;;;;;;;;;5051709;28;20045;-68
2021/05/11 11:49:48;;;;;;;6.40;4.97;;;;;;;;;;5052347;28;20752;-69
2021/05/11 11:52:16;;;;;;;;;;;;;;;;;;5052521;28;20024;-69
2021/05/11 11:55:32;;;;;;;9.20;4.80;;;;;;;;;;5051762;28;19955;-68
2021/05/11 12:00:17;;;;;;;8.90;5.75;;;;;;;;;;5052085;28;20057;-69
2021/05/11 12:02:52;;;;;;;9.40;6.40;;;;;;;;;;5051388;28;20382;-69
2021/05/11 12:05:17;;;;;;;12.60;6.90;;;;;;;;;;5050454;28;20032;-69
2021/05/11 12:10:20;;;;;;;14.38;6.55;;;;;;;;;;5049708;28;20047;-69
2021/05/11 12:12:45;;;;;;;9.75;6.10;;;;;;;;;;5051636;28;20021;-69
2021/05/11 12:15:19;;;;;;;6.88;4.78;;;;;;;;;;5051502;28;20481;-69
2021/05/11 12:17:47;;;;;;;8.20;5.57;;;;;;;;;;5051420;28;20024;-69
2021/05/11 12:20:21;;;;;;;7.43;6.18;;;;;;;;;;5051757;28;20381;-69
2021/05/11 12:22:46;;;;;;;7.47;5.50;;;;;;;;;;5070628;22;20443;-65
2021/05/11 12:25:21;;;;;;;8.00;6.35;;;;;;;;;;5030812;28;20025;-64
2021/05/11 12:27:48;;;;;;;13.50;8.60;;;;;;;;;;5031865;28;20081;-64
2021/05/11 12:30:13;;;;;;;13.65;8.80;;;;;;;;;;5030896;28;20100;-64
2021/05/11 12:32:38;;;;;;;11.68;9.15;;;;;;;;;;5031080;28;20124;-64
2021/05/11 12:35:11;;;;;;;12.73;8.53;;;;;;;;;;5031220;28;20275;-64
2021/05/11 12:37:45;;;;;;;15.23;8.88;;;;;;;;;;5031292;28;20276;-63
2021/05/11 12:40:23;;;;;;;13.65;9.60;;;;;;;;;;5031839;28;20354;-65
2021/05/11 12:42:48;;;;;;;13.50;9.65;;;;;;;;;;5031645;28;20056;-64
2021/05/11 12:45:15;;;;;;;19.58;10.75;;;;;;;;;;5031034;28;20026;-64
2021/05/11 12:47:46;;;;;;;16.33;10.00;;;;;;;;;;5030896;28;20067;-63
2021/05/11 12:50:34;;;;;;;16.15;9.75;;;;;;;;;;5031237;28;20025;-64
2021/05/11 12:53:24;;;;;;;12.35;8.80;;;;;;;;;;5031573;28;20058;-65
2021/05/11 12:58:38;;;;;;;21.65;12.43;;;;;;;;;;5031609;28;20021;-63
2021/05/11 13:01:23;;;;;;;19.88;12.68;;;;;;;;;;5030675;28;20132;-65
2021/05/11 13:04:11;;;;;;;19.95;11.85;;;;;;;;;;5031576;28;20021;-63
2021/05/11 13:09:37;;;;;;;25.10;12.82;;;;;;;;;;5030839;28;20056;-66
2021/05/11 13:19:48;;;;;;;16.52;11.02;;;;;;;;;;5020286;28;20036;-65
2021/05/11 13:28:30;;;;;;;33.33;16.10;;;;;;;;;;5030113;28;20030;-64
2021/05/11 13:31:00;;;;;;;29.67;17.65;;;;;;;;;;5029794;28;20397;-64
2021/05/11 13:35:50;;;;;;;31.10;17.83;;;;;;;;;;5029860;28;20116;-64
2021/05/11 13:38:15;;;;;;;27.43;15.73;;;;;;;;;;5030371;28;20319;-63
2021/05/11 13:40:40;;;;;;;27.02;13.73;;;;;;;;;;5029241;28;20276;-64
2021/05/11 13:43:06;;;;;;;30.45;15.60;;;;;;;;;;5025976;28;20040;-64
2021/05/11 13:45:31;;;;;;;25.33;15.53;;;;;;;;;;5028962;28;20377;-64
2021/05/11 13:48:44;;;;;;;24.53;15.93;;;;;;;;;;5028789;28;20330;-65
2021/05/11 13:53:07;;;;;;;25.42;16.13;;;;;;;;;;5029714;28;20405;-65
2021/05/11 13:55:45;;;;;;;31.27;15.55;;;;;;;;;;5029560;28;20052;-65
2021/05/11 14:03:38;;;;;;;32.00;14.25;;;;;;;;;;5029888;28;20390;-66
2021/05/11 14:06:03;;;;;;;18.98;12.85;;;;;;;;;;5029958;28;20025;-66
2021/05/11 14:08:28;;;;;;;16.20;10.85;;;;;;;;;;5029365;28;20466;-64
2021/05/11 14:10:53;;;;;;;18.90;11.03;;;;;;;;;;5029204;28;20047;-65
2021/05/11 14:13:19;;;;;;;16.30;10.67;;;;;;;;;;5027655;28;20284;-64
2021/05/11 14:15:44;;;;;;;16.52;11.85;;;;;;;;;;5028870;28;20444;-65
2021/05/11 14:18:09;;;;;;;16.95;12.70;;;;;;;;;;5027116;28;20026;-63
2021/05/11 14:20:34;;;;;;;20.45;11.95;;;;;;;;;;5028588;28;20017;-63
2021/05/11 14:23:00;;;;;;;18.00;12.25;;;;;;;;;;5028430;28;20038;-63
2021/05/11 14:25:25;;;;;;;18.60;12.27;;;;;;;;;;5028136;28;20029;-65
2021/05/11 14:27:50;;;;;;;18.33;11.67;;;;;;;;;;5028786;28;20268;-65
2021/05/11 14:30:16;;;;;;;17.33;10.93;;;;;;;;;;5029217;28;20434;-65
2021/05/11 14:32:41;;;;;;;21.55;13.75;;;;;;;;;;5029489;28;20252;-64
2021/05/11 14:35:10;;;;;;;19.50;13.15;;;;;;;;;;5028525;28;20478;-63
2021/05/11 14:37:36;;;;;;;16.17;12.10;;;;;;;;;;5028008;28;20080;-64
2021/05/11 14:40:01;;;;;;;23.50;13.63;;;;;;;;;;5028240;28;20481;-64
2021/05/11 14:42:26;;;;;;;21.25;11.57;;;;;;;;;;5027919;28;20330;-66
2021/05/11 14:44:52;;;;;;;22.15;11.38;;;;;;;;;;5028686;28;20029;-63
2021/05/11 14:47:17;;;;;;;19.77;11.38;;;;;;;;;;5026671;28;20021;-63
2021/05/11 14:49:42;;;;;;;22.33;13.00;;;;;;;;;;5029078;28;20024;-65
2021/05/11 14:52:12;;;;;;;22.20;12.03;;;;;;;;;;5027796;28;20017;-63
2021/05/11 14:54:37;;;;;;;23.05;13.13;;;;;;;;;;5028381;28;20264;-65
2021/05/11 14:57:03;;;;;;;22.50;12.80;;;;;;;;;;5027542;28;20466;-64
2021/05/11 14:59:28;;;;;;;21.02;13.25;;;;;;;;;;5028584;28;20435;-65
2021/05/11 15:01:54;;;;;;;27.13;13.93;;;;;;;;;;5032548;28;20022;-66
2021/05/11 15:04:19;;;;;;;23.02;13.52;;;;;;;;;;5031614;28;20452;-64
2021/05/11 15:06:45;;;;;;;28.65;14.68;;;;;;;;;;5022592;28;20091;-65
2021/05/11 15:09:10;;;;;;;24.40;13.27;;;;;;;;;;5033109;28;20021;-64
2021/05/11 15:11:35;;;;;;;26.48;12.70;;;;;;;;;;5035617;28;20322;-65
2021/05/11 15:14:01;;;;;;;32.15;14.23;;;;;;;;;;5030634;28;20055;-63
2021/05/11 15:16:27;;;;;;;26.10;13.10;;;;;;;;;;5030868;28;20329;-63
2021/05/11 15:18:53;;;;;;;23.67;14.27;;;;;;;;;;5030564;28;20032;-63
2021/05/11 15:21:18;;;;;;;31.80;14.57;;;;;;;;;;5030031;28;20097;-64
2021/05/11 15:23:44;;;;;;;22.75;13.88;;;;;;;;;;5031064;28;20640;-64
2021/05/11 15:26:11;;;;;;;19.30;11.00;;;;;;;;;;5030910;28;20107;-63
2021/05/11 15:28:36;;;;;;;19.77;12.73;;;;;;;;;;5032345;28;20393;-64
2021/05/11 15:31:02;;;;;;;25.85;12.18;;;;;;;;;;5026622;28;20108;-64
2021/05/11 15:33:27;;;;;;;21.85;11.27;;;;;;;;;;5031679;28;20433;-65
2021/05/11 15:35:53;;;;;;;21.73;11.50;;;;;;;;;;5031841;28;20029;-64
2021/05/11 15:38:19;;;;;;;19.73;11.80;;;;;;;;;;5032042;28;20311;-64
2021/05/11 15:40:45;;;;;;;21.30;11.55;;;;;;;;;;5031940;28;20063;-65
2021/05/11 15:43:11;;;;;;;24.95;11.63;;;;;;;;;;5031584;28;20021;-63
2021/05/11 15:45:36;;;;;;;15.98;11.32;;;;;;;;;;5031865;28;20043;-63
2021/05/11 15:48:03;;;;;;;17.98;10.57;;;;;;;;;;5030856;28;20096;-64
2021/05/11 15:50:29;;;;;;;18.05;11.20;;;;;;;;;;5032072;28;20129;-64
2021/05/11 15:52:56;;;;;;;19.42;11.38;;;;;;;;;;5031204;28;20021;-64
2021/05/11 15:55:22;;;;;;;16.30;10.75;;;;;;;;;;5031565;28;20041;-64
2021/05/11 15:57:51;;;;;;;17.17;10.20;;;;;;;;;;5031816;28;20021;-64
2021/05/11 16:00:16;;;;;;;19.00;10.13;;;;;;;;;;5032202;28;20122;-64
2021/05/11 16:02:41;;;;;;;19.77;9.73;;;;;;;;;;5031843;28;20029;-63
2021/05/11 16:05:07;;;;;;;19.90;10.65;;;;;;;;;;5032307;28;20424;-64
2021/05/11 16:07:33;;;;;;;22.70;10.98;;;;;;;;;;5031107;28;20049;-64
2021/05/11 16:09:58;;;;;;;16.08;9.90;;;;;;;;;;5032080;28;20504;-65
2021/05/11 16:12:24;;;;;;;19.08;10.25;;;;;;;;;;5013661;28;20025;-64
2021/05/11 16:14:50;;;;;;;16.10;10.15;;;;;;;;;;5031324;28;20489;-64
2021/05/11 16:17:15;;;;;;;16.40;11.05;;;;;;;;;;5030997;28;20069;-65
2021/05/11 16:19:40;;;;;;;16.52;9.82;;;;;;;;;;5031832;28;20028;-63
2021/05/11 16:22:06;;;;;;;20.10;11.53;;;;;;;;;;5031651;28;20021;-64
2021/05/11 16:24:31;;;;;;;23.90;10.43;;;;;;;;;;5031849;28;20272;-63
2021/05/11 16:26:56;;;;;;;21.48;12.05;;;;;;;;;;5031184;28;20306;-64
2021/05/11 16:29:21;;;;;;;16.67;12.25;;;;;;;;;;5030836;28;20060;-64
2021/05/11 16:31:48;;;;;;;17.83;11.53;;;;;;;;;;5031665;28;20359;-64
2021/05/11 16:34:13;;;;;;;15.90;10.68;;;;;;;;;;5031233;28;20276;-64
2021/05/11 16:36:38;;;;;;;16.35;10.98;;;;;;;;;;5030889;28;20067;-64
2021/05/11 16:39:03;;;;;;;24.25;10.93;;;;;;;;;;5030988;28;20513;-64
2021/05/11 16:41:29;;;;;;;19.00;10.73;;;;;;;;;;5031567;28;20025;-63
2021/05/11 16:43:57;;;;;;;24.83;11.60;;;;;;;;;;5031731;28;20014;-64
2021/05/11 16:46:22;;;;;;;20.98;11.45;;;;;;;;;;5030444;28;20108;-64
2021/05/11 16:48:47;;;;;;;22.45;12.38;;;;;;;;;;5030848;28;20517;-63
2021/05/11 16:51:12;;;;;;;15.77;11.15;;;;;;;;;;5030611;28;20029;-63
2021/05/11 16:53:38;;;;;;;23.48;11.95;;;;;;;;;;5031271;28;20316;-63
2021/05/11 16:56:04;;;;;;;21.35;11.85;;;;;;;;;;5030432;28;20116;-64
2021/05/11 16:58:29;;;;;;;26.20;12.45;;;;;;;;;;5031543;28;20032;-64
2021/05/11 17:00:55;;;;;;;19.80;12.95;;;;;;;;;;5030895;28;20033;-64
2021/05/11 17:03:21;;;;;;;18.15;10.60;;;;;;;;;;5030933;28;20064;-65
2021/05/11 17:05:46;;;;;;;14.30;10.65;;;;;;;;;;5030793;28;20022;-64
2021/05/11 17:08:12;;;;;;;15.77;9.95;;;;;;;;;;5030604;28;20029;-63
2021/05/11 17:10:37;;;;;;;17.20;10.00;;;;;;;;;;5031642;28;20029;-65
2021/05/11 17:13:04;;;;;;;15.20;9.95;;;;;;;;;;5031249;28;20264;-65
2021/05/11 17:15:30;;;;;;;17.80;10.27;;;;;;;;;;5024180;28;20032;-65
2021/05/11 17:17:55;;;;;;;18.70;10.10;;;;;;;;;;5025389;28;20021;-66
2021/05/11 17:20:23;;;;;;;16.30;8.30;;;;;;;;;;5027951;28;20469;-65
2021/05/11 17:22:49;;;;;;;15.48;7.93;;;;;;;;;;5029202;28;20029;-64
2021/05/11 17:25:15;;;;;;;15.10;7.63;;;;;;;;;;5030396;28;20096;-65
2021/05/11 17:27:40;;;;;;;13.48;7.25;;;;;;;;;;5029935;28;20474;-66
2021/05/11 17:30:07;;;;;;;16.02;7.03;;;;;;;;;;5028066;28;20021;-66
2021/05/11 17:32:34;;;;;;;18.17;7.22;;;;;;;;;;5025091;28;20064;-66
2021/05/11 17:34:59;;;;;;;18.20;8.30;;;;;;;;;;5029167;28;20481;-66
2021/05/11 17:37:24;;;;;;;15.80;8.07;;;;;;;;;;5028797;28;20025;-65
2021/05/11 17:39:50;;;;;;;13.18;8.07;;;;;;;;;;5030755;28;20444;-65
2021/05/11 17:42:15;;;;;;;16.38;8.57;;;;;;;;;;5030309;28;20092;-64
2021/05/11 17:44:42;;;;;;;20.95;8.90;;;;;;;;;;5028907;28;20047;-65
2021/05/11 17:47:07;;;;;;;21.55;9.05;;;;;;;;;;5029419;28;20234;-65
2021/05/11 17:49:32;;;;;;;19.23;9.52;;;;;;;;;;5027034;28;20074;-64
2021/05/11 17:51:58;;;;;;;12.82;8.77;;;;;;;;;;5028502;28;20061;-65
2021/05/11 17:54:23;;;;;;;18.33;10.23;;;;;;;;;;5022055;28;20017;-65
2021/05/11 17:56:48;;;;;;;18.07;9.23;;;;;;;;;;5029905;28;20022;-64
2021/05/11 17:59:13;;;;;;;20.53;9.90;;;;;;;;;;5029622;28;20268;-65
2021/05/11 18:01:39;;;;;;;20.60;8.67;;;;;;;;;;5028569;28;20756;-65
2021/05/11 18:04:04;;;;;;;14.70;9.13;;;;;;;;;;5025507;28;20268;-64
2021/05/11 18:06:29;;;;;;;14.02;8.73;;;;;;;;;;5029398;28;20021;-65
2021/05/11 18:08:54;;;;;;;17.80;9.10;;;;;;;;;;5024567;28;20260;-65
2021/05/11 18:11:19;;;;;;;20.35;9.88;;;;;;;;;;5024366;28;20667;-64
2021/05/11 18:13:45;;;;;;;13.85;8.23;;;;;;;;;;5020101;28;20497;-63
2021/05/11 18:16:13;;;;;;;16.05;8.82;;;;;;;;;;5028511;28;20454;-66
2021/05/11 18:18:39;;;;;;;15.07;8.75;;;;;;;;;;5029615;28;20024;-64
2021/05/11 18:21:04;;;;;;;23.63;10.00;;;;;;;;;;5029646;28;20100;-67
2021/05/11 18:23:30;;;;;;;20.20;10.05;;;;;;;;;;5053203;22;20095;-62
2021/05/11 18:25:55;;;;;;;15.70;8.70;;;;;;;;;;5030911;28;20032;-65